Terminal Aerodrome Forecast
Issued by NWS

Home | Current Version | Previous Version | Text Only | Print | Product List | Glossary On
Versions: 1 2 3 4 5 6 7 8 9 10 11 12
000
FTUS45 KREV 181121
TAFTVL
TAF
KTVL 181121Z 1812/1912 20013G24KT P6SM SCT050 WS020/28045KT
     FM181600 20025G35KT P6SM VCSH SCT030 BKN050 WS020/28050KT
     FM182200 20015G21KT 5SM -SHSN BKN030 OVC040
      TEMPO 1823/1903 1SM -SN BKN010 OVC020
     FM190400 20009KT P6SM VCSH BKN025 BKN035=

USA.gov is the U.S. government's official web portal to all federal, state and local government web resources and services.